Time;durP1;ratioP1;P1;durP2;ratioP2;P2;SDS_P1;SDS_P2;PMS_P1;PMS_P2;Temp;Humidity;BMP_temperature;BMP_pressure;BME280_temperature;BME280_humidity;BME280_pressure;Samples;Min_cycle;Max_cycle;Signal;HPM_P1;HPM_P2
2022/07/02 00:00:02;;;;;;;6.15;3.20;;;;;;;14.87;83.47;102048.56;5118161;28;20031;-60
2022/07/02 00:02:28;;;;;;;7.10;2.90;;;;;;;14.79;84.51;102055.66;5118285;28;20449;-59
2022/07/02 00:05:03;;;;;;;8.63;3.10;;;;;;;14.74;83.98;102050.44;5117861;28;20062;-59
2022/07/02 00:07:28;;;;;;;7.05;3.35;;;;;;;14.72;84.92;102056.63;5118107;28;20126;-59
2022/07/02 00:09:55;;;;;;;4.82;2.80;;;;;;;14.67;85.47;102061.94;5118058;28;20114;-59
2022/07/02 00:12:22;;;;;;;9.40;3.45;;;;;;;14.65;85.27;102049.69;5117807;28;20399;-59
2022/07/02 00:14:55;;;;;;;9.80;3.00;;;;;;;14.60;85.25;102057.63;5118158;28;20081;-59
2022/07/02 00:17:21;;;;;;;6.07;3.10;;;;;;;14.57;85.33;102057.66;5117862;28;20058;-60
2022/07/02 00:19:48;;;;;;;5.95;3.40;;;;;;;14.59;85.43;102053.25;5117678;28;20081;-59
2022/07/02 00:22:14;;;;;;;7.70;2.88;;;;;;;14.52;86.17;102051.56;5117504;28;20160;-59
2022/07/02 00:24:41;;;;;;;8.20;3.25;;;;;;;14.51;86.83;102053.34;5117729;28;20442;-59
2022/07/02 00:27:09;;;;;;;7.63;3.38;;;;;;;14.45;85.98;102048.13;5117231;28;20514;-59
2022/07/02 00:29:51;;;;;;;6.68;3.40;;;;;;;14.50;84.80;102050.72;5117581;28;20036;-59
2022/07/02 00:32:17;;;;;;;8.60;3.30;;;;;;;14.45;86.64;102045.50;5117244;28;20047;-59
2022/07/02 00:34:44;;;;;;;7.45;3.38;;;;;;;14.42;87.25;102052.53;5117531;28;20445;-58
2022/07/02 00:37:13;;;;;;;8.20;3.38;;;;;;;14.44;85.21;102049.00;5117083;28;20039;-59
2022/07/02 00:39:40;;;;;;;8.40;3.30;;;;;;;14.43;85.53;102055.16;5117625;28;20042;-59
2022/07/02 00:42:07;;;;;;;6.38;3.65;;;;;;;14.35;86.76;102058.75;5099302;28;20028;-59
2022/07/02 00:44:33;;;;;;;5.35;3.60;;;;;;;14.30;86.67;102058.78;5117552;28;20473;-60
2022/07/02 00:47:06;;;;;;;5.78;3.17;;;;;;;14.23;87.59;102057.06;5117159;28;20050;-58
2022/07/02 00:49:33;;;;;;;6.68;3.03;;;;;;;14.16;87.76;102058.91;5117201;28;20020;-59
2022/07/02 00:51:59;;;;;;;5.25;3.08;;;;;;;14.19;87.86;102060.66;5117097;28;20039;-59
2022/07/02 00:54:25;;;;;;;5.28;3.40;;;;;;;14.04;89.14;102059.00;5117184;28;20024;-59
2022/07/02 00:56:52;;;;;;;3.95;3.40;;;;;;;14.06;88.28;102049.31;5117374;28;20027;-59
2022/07/02 00:59:18;;;;;;;5.43;3.08;;;;;;;14.10;87.61;102052.81;5117140;28;20031;-60
2022/07/02 01:01:43;;;;;;;5.95;2.70;;;;;;;14.11;87.46;102046.66;5116804;28;20114;-59
2022/07/02 01:04:13;;;;;;;5.63;3.42;;;;;;;14.05;88.57;102049.34;5116784;28;20051;-59
2022/07/02 01:06:41;;;;;;;5.10;2.88;;;;;;;14.02;88.77;102039.72;5116988;28;20031;-59
2022/07/02 01:11:55;;;;;;;5.97;3.15;;;;;;;13.90;89.23;102045.06;5116882;28;20192;-58
2022/07/02 01:14:21;;;;;;;4.97;2.70;;;;;;;13.91;88.90;102038.94;5117045;28;20027;-58
2022/07/02 01:16:47;;;;;;;5.15;2.75;;;;;;;13.90;87.79;102045.06;5116573;28;20031;-59
2022/07/02 01:19:22;;;;;;;4.63;2.67;;;;;;;13.91;88.79;102046.81;5116958;28;20110;-59
2022/07/02 01:22:12;;;;;;;4.22;3.03;;;;;;;13.87;87.69;102043.34;5116597;28;20024;-59
2022/07/02 01:24:37;;;;;;;5.43;3.08;;;;;;;13.94;87.44;102038.91;5116519;28;20031;-58
2022/07/02 01:27:03;;;;;;;5.15;2.80;;;;;;;13.91;88.20;102045.06;5116673;28;20437;-59
2022/07/02 01:29:28;;;;;;;6.43;2.95;;;;;;;13.88;89.04;102045.09;5116313;28;20024;-60
2022/07/02 01:31:54;;;;;;;4.13;2.65;;;;;;;13.80;88.78;102041.66;5116466;28;20051;-59
2022/07/02 01:34:19;;;;;;;6.07;2.97;;;;;;;13.75;89.60;102040.81;5116312;28;20422;-59
2022/07/02 01:36:44;;;;;;;5.85;2.90;;;;;;;13.69;90.13;102038.22;5116496;28;20028;-61
2022/07/02 01:39:10;;;;;;;7.13;2.80;;;;;;;13.69;90.33;102050.50;5116207;28;20027;-60
2022/07/02 01:41:40;;;;;;;6.45;3.30;;;;;;;13.59;90.65;102042.69;5116196;28;20115;-59
2022/07/02 01:44:07;;;;;;;5.57;2.90;;;;;;;13.50;90.75;102049.75;5116494;28;20034;-60
2022/07/02 01:46:32;;;;;;;4.75;2.75;;;;;;;13.54;91.20;102051.47;5116305;28;20031;-59
2022/07/02 01:48:58;;;;;;;6.20;3.10;;;;;;;13.51;91.42;102051.47;5116199;28;20332;-58
2022/07/02 01:51:23;;;;;;;9.50;2.83;;;;;;;13.54;91.68;102054.09;5116085;28;20035;-58
2022/07/02 01:53:48;;;;;;;6.38;3.08;;;;;;;13.47;91.45;102039.25;5116138;28;20031;-59
2022/07/02 01:56:14;;;;;;;5.07;2.85;;;;;;;13.50;91.87;102049.75;5116243;28;20027;-59
2022/07/02 01:58:39;;;;;;;4.95;2.70;;;;;;;13.52;91.84;102055.84;5115814;28;20023;-58
2022/07/02 02:01:04;;;;;;;4.20;2.95;;;;;;;13.47;91.91;102045.38;5115784;28;20028;-58
2022/07/02 02:03:30;;;;;;;5.10;2.72;;;;;;;13.49;91.77;102048.00;5116004;28;20069;-58
2022/07/02 02:05:55;;;;;;;4.22;2.90;;;;;;;13.51;91.46;102052.34;5115692;28;20109;-59
2022/07/02 02:08:20;;;;;;;6.10;3.30;;;;;;;13.48;92.45;102046.25;5115569;28;20047;-59
2022/07/02 02:10:45;;;;;;;4.40;3.13;;;;;;;13.47;92.20;102045.38;5116396;28;20042;-58
2022/07/02 02:13:11;;;;;;;6.03;3.15;;;;;;;13.43;91.67;102043.66;5115366;28;20114;-58
2022/07/02 02:15:36;;;;;;;8.00;3.03;;;;;;;13.42;91.72;102036.66;5115768;28;20102;-59
2022/07/02 02:18:01;;;;;;;4.65;2.83;;;;;;;13.45;91.72;102041.03;5114935;28;20020;-60
2022/07/02 02:20:27;;;;;;;4.70;2.90;;;;;;;13.44;90.94;102041.91;5115742;28;20107;-59
2022/07/02 02:22:52;;;;;;;5.05;3.05;;;;;;;13.43;90.16;102041.03;5115520;28;20019;-59
2022/07/02 02:25:17;;;;;;;5.63;3.35;;;;;;;13.46;89.93;102035.75;5115830;28;20050;-60
2022/07/02 02:27:43;;;;;;;6.10;3.10;;;;;;;13.47;89.72;102039.25;5115376;28;20345;-60
2022/07/02 02:30:09;;;;;;;6.63;3.10;;;;;;;13.61;89.04;102034.78;5115205;28;20084;-59
2022/07/02 02:32:36;;;;;;;6.93;3.60;;;;;;;13.65;88.94;102040.91;5115479;28;20093;-59
2022/07/02 02:35:02;;;;;;;6.28;3.60;;;;;;;13.74;88.55;102046.06;5115528;28;20035;-59
2022/07/02 02:37:28;;;;;;;8.70;3.30;;;;;;;13.79;88.09;102044.28;5115318;28;20031;-60
2022/07/02 02:39:53;;;;;;;5.93;3.85;;;;;;;13.85;88.12;102046.88;5115251;28;20031;-60
2022/07/02 02:42:18;;;;;;;8.68;3.90;;;;;;;13.91;87.93;102038.94;5115372;28;20016;-60
2022/07/02 02:44:43;;;;;;;6.60;3.80;;;;;;;13.97;87.15;102035.38;5115333;28;20404;-60
2022/07/02 02:47:09;;;;;;;10.05;4.10;;;;;;;13.94;86.98;102045.03;5115490;28;20019;-60
2022/07/02 02:49:34;;;;;;;8.30;3.53;;;;;;;14.02;86.70;102041.50;5115440;28;20495;-59
2022/07/02 02:51:59;;;;;;;8.27;3.92;;;;;;;14.07;86.45;102044.94;5115235;28;20024;-59
2022/07/02 02:54:25;;;;;;;8.73;3.83;;;;;;;14.03;86.63;102048.47;5115251;28;20028;-59
2022/07/02 02:56:50;;;;;;;8.63;4.35;;;;;;;14.05;85.70;102050.22;5115590;28;20032;-59
2022/07/02 02:59:15;;;;;;;5.82;3.60;;;;;;;14.01;86.02;102043.25;5115233;28;20023;-59
2022/07/02 03:01:40;;;;;;;5.20;3.25;;;;;;;14.01;85.85;102043.25;5115375;28;20034;-60
2022/07/02 03:04:06;;;;;;;7.05;3.92;;;;;;;13.97;86.60;102040.66;5115108;28;20028;-60
2022/07/02 03:06:31;;;;;;;9.15;3.90;;;;;;;13.92;86.00;102045.94;5114962;28;20038;-61
2022/07/02 03:08:56;;;;;;;6.47;3.55;;;;;;;13.94;86.64;102047.69;5114924;28;20067;-60
2022/07/02 03:11:21;;;;;;;8.00;3.80;;;;;;;13.84;86.51;102046.00;5114906;28;20405;-60
2022/07/02 03:13:47;;;;;;;6.78;3.30;;;;;;;13.77;86.28;102054.81;5115405;28;20034;-59
2022/07/02 03:16:12;;;;;;;6.20;3.72;;;;;;;13.73;87.19;102046.97;5114553;28;20043;-59
2022/07/02 03:18:37;;;;;;;8.25;3.40;;;;;;;13.72;87.53;102061.00;5115183;28;20046;-59
2022/07/02 03:21:03;;;;;;;6.43;3.50;;;;;;;13.67;87.42;102054.91;5115203;28;20331;-60
2022/07/02 03:23:28;;;;;;;7.07;3.38;;;;;;;13.66;88.45;102066.31;5114753;28;20036;-60
2022/07/02 03:25:54;;;;;;;7.63;3.33;;;;;;;13.56;89.69;102055.84;5114673;28;20042;-59
2022/07/02 03:28:19;;;;;;;9.02;3.35;;;;;;;13.58;88.53;102061.09;5115070;28;20084;-60
2022/07/02 03:30:44;;;;;;;8.75;3.75;;;;;;;13.58;88.32;102068.97;5117376;28;20043;-60
2022/07/02 03:33:09;;;;;;;7.15;3.40;;;;;;;13.55;88.72;102066.38;5100765;28;20395;-59
2022/07/02 03:35:35;;;;;;;6.65;3.47;;;;;;;13.55;88.96;102072.50;5119302;28;20035;-60
2022/07/02 03:38:01;;;;;;;6.28;3.38;;;;;;;13.61;88.34;102075.97;5118706;28;20049;-59
2022/07/02 03:40:27;;;;;;;6.63;3.40;;;;;;;13.65;87.85;102082.97;5118726;28;20055;-59
2022/07/02 03:42:53;;;;;;;9.25;3.70;;;;;;;13.69;86.93;102082.06;5118473;28;20067;-59
2022/07/02 03:45:18;;;;;;;7.85;3.70;;;;;;;13.78;86.74;102088.16;5118033;28;20103;-59
2022/07/02 03:47:43;;;;;;;5.25;3.00;;;;;;;13.82;86.23;102091.63;5118863;28;20032;-60
2022/07/02 03:50:09;;;;;;;6.88;3.22;;;;;;;13.86;86.56;102082.81;5118510;28;20035;-60
2022/07/02 03:52:36;;;;;;;11.90;3.53;;;;;;;13.83;87.20;102078.47;5118046;28;20041;-59
2022/07/02 03:55:02;;;;;;;5.28;3.10;;;;;;;13.77;88.39;102072.38;5118086;28;20516;-60
2022/07/02 03:57:27;;;;;;;6.80;3.10;;;;;;;13.82;89.13;102087.25;5118187;28;20027;-59
2022/07/02 03:59:53;;;;;;;5.40;3.20;;;;;;;13.77;88.89;102083.75;5118231;28;20027;-59
2022/07/02 04:02:18;;;;;;;5.50;3.15;;;;;;;13.84;89.43;102084.59;5118248;28;20461;-60
2022/07/02 04:04:43;;;;;;;5.55;3.00;;;;;;;13.90;88.33;102077.53;5118358;28;20308;-60
2022/07/02 04:07:09;;;;;;;3.95;2.63;;;;;;;13.92;87.22;102074.88;5117799;28;20028;-60
2022/07/02 04:09:34;;;;;;;5.35;3.17;;;;;;;13.95;87.44;102077.50;5117888;28;20488;-59
2022/07/02 04:11:59;;;;;;;5.63;2.80;;;;;;;13.97;86.82;102069.59;5118107;28;20028;-60
2022/07/02 04:14:24;;;;;;;5.47;2.85;;;;;;;14.06;88.27;102080.91;5117852;28;20035;-59
2022/07/02 04:16:50;;;;;;;8.10;3.20;;;;;;;14.08;87.83;102084.41;5118007;28;20039;-60
2022/07/02 04:19:15;;;;;;;8.25;3.58;;;;;;;14.09;86.75;102085.28;5117810;28;20324;-59
2022/07/02 04:21:40;;;;;;;5.60;3.45;;;;;;;14.00;86.96;102090.63;5117847;28;20100;-59
2022/07/02 04:24:06;;;;;;;8.18;3.67;;;;;;;13.96;86.55;102078.38;5117573;28;20114;-59
2022/07/02 04:26:31;;;;;;;7.45;4.10;;;;;;;13.93;86.79;102085.41;5117683;28;20038;-60
2022/07/02 04:28:57;;;;;;;8.43;3.90;;;;;;;13.95;86.79;102082.75;5117706;28;20062;-59
2022/07/02 04:31:22;;;;;;;7.70;3.80;;;;;;;13.97;86.46;102081.00;5117598;28;20056;-59
2022/07/02 04:33:47;;;;;;;8.30;3.90;;;;;;;14.07;85.79;102087.03;5117540;28;20023;-60
2022/07/02 04:36:12;;;;;;;7.28;3.90;;;;;;;14.11;85.67;102087.03;5117782;28;20057;-60
2022/07/02 04:38:38;;;;;;;6.80;3.33;;;;;;;14.19;85.68;102087.84;5117416;28;20454;-59
2022/07/02 04:41:03;;;;;;;6.90;3.45;;;;;;;14.25;85.03;102079.88;5116930;28;20089;-59
2022/07/02 04:43:28;;;;;;;6.68;2.90;;;;;;;14.35;84.69;102083.31;5117508;28;20031;-59
2022/07/02 04:45:54;;;;;;;5.88;2.92;;;;;;;14.41;83.86;102080.63;5117426;28;20032;-59
2022/07/02 04:48:19;;;;;;;7.85;3.10;;;;;;;14.47;83.18;102074.44;5117335;28;20031;-59
2022/07/02 04:50:44;;;;;;;5.28;3.08;;;;;;;14.53;83.32;102070.00;5117385;28;20416;-59
2022/07/02 04:53:09;;;;;;;8.80;3.20;;;;;;;14.57;83.81;102074.31;5117414;28;20031;-59
2022/07/02 04:55:35;;;;;;;7.20;3.20;;;;;;;14.56;83.18;102075.22;5116961;28;20394;-59
2022/07/02 04:58:00;;;;;;;5.32;3.03;;;;;;;14.57;83.19;102074.31;5117112;28;20042;-59
2022/07/02 05:00:25;;;;;;;6.32;3.55;;;;;;;14.55;83.76;102081.38;5117125;28;20177;-59
2022/07/02 05:02:51;;;;;;;7.55;3.80;;;;;;;14.57;83.21;102078.72;5116745;28;20070;-60
2022/07/02 05:05:16;;;;;;;8.55;4.00;;;;;;;14.57;83.80;102078.72;5116981;28;20024;-59
2022/07/02 05:07:41;;;;;;;5.82;3.85;;;;;;;14.61;83.67;102076.06;5116909;28;20414;-60
2022/07/02 05:10:07;;;;;;;8.93;3.67;;;;;;;14.69;83.63;102073.34;5117023;28;20042;-59
2022/07/02 05:12:32;;;;;;;6.50;3.83;;;;;;;14.69;82.90;102078.63;5116847;28;20050;-60
2022/07/02 05:14:58;;;;;;;8.75;3.67;;;;;;;14.73;83.61;102082.94;5116996;28;20453;-59
2022/07/02 05:17:23;;;;;;;7.70;3.20;;;;;;;14.72;82.10;102080.34;5116860;28;20064;-59
2022/07/02 05:19:48;;;;;;;7.00;3.50;;;;;;;14.74;82.46;102081.19;5117464;28;20291;-59
2022/07/02 05:22:14;;;;;;;5.50;3.28;;;;;;;14.75;82.66;102083.81;5116622;28;20038;-60
2022/07/02 05:24:39;;;;;;;6.10;3.70;;;;;;;14.76;80.96;102082.91;5116488;28;20490;-60
2022/07/02 05:27:05;;;;;;;7.82;3.70;;;;;;;14.73;81.95;102080.31;5116224;28;20035;-59
2022/07/02 05:29:30;;;;;;;5.63;3.50;;;;;;;14.74;82.48;102081.19;5116750;28;20059;-59
2022/07/02 05:31:56;;;;;;;6.10;3.38;;;;;;;14.74;83.11;102083.81;5116384;28;20075;-59
2022/07/02 05:34:21;;;;;;;6.95;3.28;;;;;;;14.77;81.99;102073.25;5116476;28;20032;-59
2022/07/02 05:36:47;;;;;;;5.63;3.28;;;;;;;14.75;82.65;102077.66;5116370;28;20028;-59
2022/07/02 05:39:13;;;;;;;6.97;3.08;;;;;;;14.80;82.93;102089.03;5116135;28;20069;-60
2022/07/02 05:41:38;;;;;;;5.85;2.90;;;;;;;14.82;81.45;102090.75;5115958;28;20491;-59
2022/07/02 05:44:04;;;;;;;7.20;3.13;;;;;;;14.86;81.67;102089.84;5116366;28;20039;-59
2022/07/02 05:46:29;;;;;;;5.95;2.72;;;;;;;14.89;81.12;102091.59;5116291;28;20028;-60
2022/07/02 05:48:54;;;;;;;9.40;3.10;;;;;;;14.93;81.45;102093.25;5116283;28;20035;-60
2022/07/02 05:51:19;;;;;;;6.13;2.83;;;;;;;14.97;81.95;102089.72;5116114;28;20047;-59
2022/07/02 05:53:45;;;;;;;4.32;2.40;;;;;;;15.09;79.79;102097.47;5115419;28;20038;-59
2022/07/02 05:56:10;;;;;;;6.35;2.30;;;;;;;15.17;79.12;102093.00;5115634;28;20118;-60
2022/07/02 05:58:35;;;;;;;6.10;2.28;;;;;;;15.21;78.85;102091.19;5116015;28;20031;-59
2022/07/02 06:01:00;;;;;;;3.15;2.28;;;;;;;15.41;79.44;102099.69;5115888;28;20115;-60
2022/07/02 06:03:26;;;;;;;5.18;2.15;;;;;;;16.34;75.76;102093.91;5115987;28;20036;-59
2022/07/02 06:08:35;;;;;;;5.57;1.65;;;;;;;16.99;68.98;102088.31;5115314;28;20093;-58
2022/07/02 06:11:00;;;;;;;6.57;1.80;;;;;;;16.82;68.01;102096.56;5115571;28;20027;-58
2022/07/02 06:13:25;;;;;;;6.75;2.25;;;;;;;16.62;67.18;102098.72;5115822;28;20063;-59
2022/07/02 06:15:51;;;;;;;2.95;1.60;;;;;;;16.38;68.68;102099.13;5115623;28;20400;-59
2022/07/02 06:18:16;;;;;;;7.88;1.48;;;;;;;16.27;70.15;102094.91;5115759;28;20038;-59
2022/07/02 06:20:41;;;;;;;4.75;2.17;;;;;;;16.21;69.76;102095.00;5115382;28;20114;-58
2022/07/02 06:23:07;;;;;;;3.65;1.60;;;;;;;16.20;69.76;102095.91;5115662;28;20035;-59
2022/07/02 06:25:33;;;;;;;3.65;1.70;;;;;;;16.22;69.92;102090.59;5115712;28;20502;-58
2022/07/02 06:27:58;;;;;;;4.38;1.40;;;;;;;16.43;66.41;102092.00;5115096;28;20438;-58
2022/07/02 06:30:23;;;;;;;3.42;1.20;;;;;;;16.63;64.69;102097.81;5115520;28;20079;-60
2022/07/02 06:32:49;;;;;;;3.35;1.33;;;;;;;16.91;63.54;102095.53;5115468;28;20088;-59
2022/07/02 06:35:15;;;;;;;4.32;1.52;;;;;;;17.11;64.53;102103.09;5115195;28;20438;-59
2022/07/02 06:37:40;;;;;;;6.40;1.90;;;;;;;17.28;63.58;102101.81;5115346;28;20092;-59
2022/07/02 06:40:07;;;;;;;2.67;1.17;;;;;;;17.36;63.35;102106.94;5115265;28;20493;-60
2022/07/02 06:42:33;;;;;;;3.42;1.40;;;;;;;17.39;62.83;102098.94;5115356;28;20024;-59
2022/07/02 06:44:59;;;;;;;3.22;1.20;;;;;;;17.26;62.42;102100.13;5115356;28;20042;-60
2022/07/02 06:47:26;;;;;;;2.28;1.10;;;;;;;17.10;63.64;102099.56;5115439;28;20176;-60
2022/07/02 06:49:54;;;;;;;3.97;1.05;;;;;;;17.09;64.50;102096.94;5115205;28;20438;-60
2022/07/02 06:52:19;;;;;;;2.30;1.10;;;;;;;16.89;63.77;102077.06;5115307;28;20467;-59
2022/07/02 06:54:45;;;;;;;5.03;1.23;;;;;;;17.01;61.70;102095.31;5115554;28;20065;-60
2022/07/02 06:57:11;;;;;;;1.67;1.10;;;;;;;17.02;61.12;102097.06;5115068;28;20028;-60
2022/07/02 06:59:37;;;;;;;2.53;0.93;;;;;;;17.03;61.86;102097.94;5115210;28;20059;-59
2022/07/02 07:02:03;;;;;;;3.72;1.10;;;;;;;17.12;60.84;102099.53;5115209;28;20101;-59
2022/07/02 07:04:29;;;;;;;1.80;0.90;;;;;;;17.13;61.56;102088.06;5116075;28;20039;-60
2022/07/02 07:06:55;;;;;;;2.75;1.08;;;;;;;17.06;60.67;102100.53;5119091;28;20332;-59
2022/07/02 07:09:21;;;;;;;2.97;0.88;;;;;;;17.01;60.96;102099.72;5119275;28;20085;-60
2022/07/02 07:11:47;;;;;;;4.93;1.20;;;;;;;16.95;59.85;102103.38;5119764;28;20027;-59
2022/07/02 07:14:12;;;;;;;1.80;0.95;;;;;;;16.94;60.40;102096.34;5119072;28;20031;-61
2022/07/02 07:16:38;;;;;;;1.65;0.70;;;;;;;16.95;56.96;102095.47;5119327;28;20039;-59
2022/07/02 07:19:07;;;;;;;2.20;1.00;;;;;;;16.98;58.34;102097.13;5118945;28;20034;-59
2022/07/02 07:21:32;;;;;;;2.97;1.05;;;;;;;17.06;57.98;102095.22;5118777;28;20027;-60
2022/07/02 07:23:57;;;;;;;2.55;0.90;;;;;;;17.02;60.92;102104.13;5118758;28;20031;-58
2022/07/02 07:26:23;;;;;;;2.45;0.95;;;;;;;17.05;59.84;102099.66;5118891;28;20035;-59
2022/07/02 07:28:48;;;;;;;1.63;0.95;;;;;;;17.10;60.80;102103.97;5118867;28;20497;-59
2022/07/02 07:31:16;;;;;;;3.50;1.35;;;;;;;17.15;59.97;102097.66;5119038;28;20499;-58
2022/07/02 07:33:41;;;;;;;2.17;1.20;;;;;;;17.22;60.32;102101.94;5118772;28;20036;-58
2022/07/02 07:36:06;;;;;;;2.10;1.48;;;;;;;17.31;61.14;102099.13;5118453;28;20118;-59
2022/07/02 07:38:32;;;;;;;3.22;1.20;;;;;;;17.40;63.04;102103.34;5118630;28;20023;-59
2022/07/02 07:40:57;;;;;;;3.25;1.10;;;;;;;17.41;62.00;102102.44;5118719;28;20129;-59
2022/07/02 07:43:22;;;;;;;2.92;1.10;;;;;;;17.47;61.73;102104.94;5118634;28;20113;-60
2022/07/02 07:45:47;;;;;;;2.67;1.05;;;;;;;17.52;61.01;102112.78;5118616;28;20088;-59
2022/07/02 07:48:13;;;;;;;4.18;1.40;;;;;;;17.55;59.77;102108.28;5118431;28;20431;-58
2022/07/02 07:50:39;;;;;;;3.22;1.10;;;;;;;17.66;59.99;102108.94;5118247;28;20119;-59
2022/07/02 07:53:04;;;;;;;2.67;1.05;;;;;;;17.73;59.21;102105.25;5118138;28;20035;-60
2022/07/02 07:55:30;;;;;;;3.63;1.10;;;;;;;18.03;57.89;102097.50;5118152;28;20028;-59
2022/07/02 07:57:55;;;;;;;3.50;1.25;;;;;;;18.12;57.94;102096.41;5118131;28;20030;-60
2022/07/02 08:00:20;;;;;;;3.63;1.15;;;;;;;18.11;59.09;102098.19;5118424;28;20031;-60
2022/07/02 08:02:46;;;;;;;3.33;1.05;;;;;;;18.05;57.84;102091.25;5118046;28;20031;-59
2022/07/02 08:05:11;;;;;;;2.85;1.17;;;;;;;18.03;57.92;102095.72;5118138;28;20023;-60
2022/07/02 08:07:38;;;;;;;3.15;1.40;;;;;;;18.01;57.17;102094.00;5117912;28;20059;-60
2022/07/02 08:10:05;;;;;;;2.25;0.88;;;;;;;17.98;56.92;102096.75;5117811;28;20043;-59
2022/07/02 08:12:30;;;;;;;2.83;1.10;;;;;;;18.05;58.47;102098.31;5118104;28;20043;-59
2022/07/02 08:14:56;;;;;;;2.42;1.00;;;;;;;18.04;58.17;102092.16;5118098;28;20028;-60
2022/07/02 08:17:21;;;;;;;4.80;1.10;;;;;;;18.12;58.76;102081.38;5117058;28;20506;-60
2022/07/02 08:19:46;;;;;;;4.75;1.27;;;;;;;18.17;56.83;102084.81;5117956;28;20035;-59
2022/07/02 08:22:12;;;;;;;5.25;1.10;;;;;;;18.16;57.84;102080.41;5118090;28;20088;-59
2022/07/02 08:24:37;;;;;;;2.28;0.93;;;;;;;18.19;60.23;102079.44;5118001;28;20137;-59
2022/07/02 08:27:02;;;;;;;3.10;1.10;;;;;;;18.22;59.12;102085.53;5118009;28;20445;-60
2022/07/02 08:29:28;;;;;;;3.13;0.85;;;;;;;18.32;59.04;102084.41;5117692;28;20088;-59
2022/07/02 08:31:53;;;;;;;3.67;1.10;;;;;;;18.29;57.34;102079.19;5116982;28;20165;-60
2022/07/02 08:34:18;;;;;;;4.53;1.20;;;;;;;18.33;58.41;102075.53;5117435;28;20040;-60
2022/07/02 08:36:43;;;;;;;5.10;1.20;;;;;;;18.35;57.37;102073.72;5117558;28;20353;-60
2022/07/02 08:39:09;;;;;;;2.38;1.10;;;;;;;18.39;57.65;102070.06;5117736;28;20039;-59
2022/07/02 08:41:35;;;;;;;3.80;1.02;;;;;;;18.48;58.19;102073.41;5117454;28;20470;-59
2022/07/02 08:44:02;;;;;;;2.63;1.00;;;;;;;18.55;55.87;102070.53;5117534;28;20027;-59
2022/07/02 08:46:29;;;;;;;3.55;1.05;;;;;;;18.61;56.90;102074.84;5117368;28;20053;-60
2022/07/02 08:48:55;;;;;;;4.85;1.08;;;;;;;18.63;58.73;102067.72;5117158;28;20032;-60
2022/07/02 08:51:21;;;;;;;4.78;1.30;;;;;;;18.64;57.36;102066.81;5117241;28;20106;-59
2022/07/02 08:53:47;;;;;;;4.32;1.40;;;;;;;18.72;56.57;102059.50;5117150;28;20110;-61
2022/07/02 08:56:16;;;;;;;3.45;1.20;;;;;;;18.72;57.22;102057.72;5117160;28;20038;-60
2022/07/02 08:58:44;;;;;;;3.60;1.25;;;;;;;18.93;57.29;102061.53;5116755;28;20057;-59
2022/07/02 09:01:10;;;;;;;2.90;1.08;;;;;;;19.19;56.98;102059.94;5116952;28;20061;-60
2022/07/02 09:03:37;;;;;;;3.50;1.20;;;;;;;19.66;58.11;102046.09;5116587;28;20061;-60
2022/07/02 09:06:05;;;;;;;3.95;1.10;;;;;;;19.92;56.66;102062.94;5116869;28;20444;-60
2022/07/02 09:08:31;;;;;;;3.17;1.27;;;;;;;20.36;54.04;102058.81;5098704;28;20400;-60
2022/07/02 09:10:57;;;;;;;4.20;1.02;;;;;;;20.97;51.46;102059.28;5116621;28;20028;-60
2022/07/02 09:13:24;;;;;;;3.95;1.20;;;;;;;21.78;51.18;102049.91;5116991;28;20042;-60
2022/07/02 09:15:51;;;;;;;3.58;1.20;;;;;;;22.49;47.14;102037.16;5116738;28;20034;-61
2022/07/02 09:18:17;;;;;;;5.85;1.20;;;;;;;23.16;46.25;102039.44;5116588;28;20039;-59
2022/07/02 09:20:42;;;;;;;3.33;1.10;;;;;;;23.87;44.92;102030.66;5117118;28;20027;-60
2022/07/02 09:23:20;;;;;;;3.75;1.15;;;;;;;24.51;42.95;102035.38;5116763;28;20063;-60
2022/07/02 09:25:47;;;;;;;3.15;0.93;;;;;;;25.19;41.25;102033.50;5116778;28;20035;-59
2022/07/02 09:28:14;;;;;;;3.85;1.08;;;;;;;25.87;39.19;102023.34;5116730;28;20024;-60
2022/07/02 09:30:39;;;;;;;3.63;0.95;;;;;;;26.98;38.01;102018.38;5116135;28;20067;-60
2022/07/02 09:33:28;;;;;;;1.83;0.90;;;;;;;27.57;38.65;102006.47;5116615;28;20120;-59
2022/07/02 09:35:53;;;;;;;3.45;0.80;;;;;;;27.26;35.63;102010.28;5116294;28;20028;-60
2022/07/02 09:38:19;;;;;;;5.05;1.20;;;;;;;27.05;35.63;102006.28;5116389;28;20042;-60
2022/07/02 09:40:55;;;;;;;3.13;0.90;;;;;;;26.61;37.47;102009.94;5116489;28;20055;-59
2022/07/02 09:43:32;;;;;;;2.38;0.80;;;;;;;25.53;40.11;102011.00;5097900;28;20285;-61
2022/07/02 09:45:59;;;;;;;3.35;1.13;;;;;;;24.42;41.91;102009.09;5116191;28;20032;-59
2022/07/02 09:48:25;;;;;;;3.28;0.88;;;;;;;23.70;42.39;102005.69;5115932;28;20446;-59
2022/07/02 09:50:52;;;;;;;3.38;0.85;;;;;;;23.16;43.23;102020.75;5115564;28;20088;-61
2022/07/02 09:53:17;;;;;;;3.00;1.40;;;;;;;22.84;44.11;102006.25;5116135;28;20164;-60
2022/07/02 09:55:48;;;;;;;2.83;0.88;;;;;;;22.71;46.08;101997.00;5116056;28;20027;-59
2022/07/02 09:58:14;;;;;;;3.45;1.08;;;;;;;22.70;45.48;101997.94;5116176;28;20039;-60
2022/07/02 10:00:45;;;;;;;2.75;1.20;;;;;;;22.70;45.50;102006.81;5115841;28;20450;-59
2022/07/02 10:03:10;;;;;;;3.05;1.10;;;;;;;22.62;45.33;101994.78;5116085;28;20106;-60
2022/07/02 10:05:35;;;;;;;3.30;1.10;;;;;;;22.51;45.97;101998.75;5115843;28;20123;-59
2022/07/02 10:08:06;;;;;;;2.88;1.10;;;;;;;22.51;44.82;101992.59;5115367;28;20031;-61
2022/07/02 10:10:38;;;;;;;3.67;1.27;;;;;;;22.32;45.54;101989.88;5116004;28;20035;-60
2022/07/02 10:13:03;;;;;;;3.92;1.00;;;;;;;22.39;46.11;101987.78;5115596;28;20124;-59
2022/07/02 10:15:31;;;;;;;5.10;1.08;;;;;;;22.45;43.78;101993.72;5115667;28;20069;-59
2022/07/02 10:17:58;;;;;;;3.85;1.23;;;;;;;22.23;45.81;101992.94;5115642;28;20020;-58
2022/07/02 10:20:23;;;;;;;5.20;1.40;;;;;;;22.13;47.71;101996.94;5114369;28;20388;-60
2022/07/02 10:22:49;;;;;;;4.25;0.75;;;;;;;22.06;46.88;101990.13;5114172;28;20118;-60
2022/07/02 10:25:17;;;;;;;3.45;0.90;;;;;;;22.02;46.07;101999.19;5115151;28;20032;-61
2022/07/02 10:27:44;;;;;;;4.20;0.80;;;;;;;22.18;46.54;101989.59;5108925;28;20063;-61
2022/07/02 10:30:10;;;;;;;2.22;0.82;;;;;;;22.42;48.36;101983.19;5106862;28;20484;-61
2022/07/02 10:32:52;;;;;;;3.28;0.93;;;;;;;22.64;47.12;101979.56;5114493;28;20100;-60
2022/07/02 10:35:20;;;;;;;2.33;0.95;;;;;;;22.81;43.88;101980.56;5094748;28;20048;-59
2022/07/02 10:37:46;;;;;;;2.03;0.70;;;;;;;22.87;43.27;101974.03;5095443;28;20119;-60
2022/07/02 10:40:16;;;;;;;2.10;0.88;;;;;;;22.66;43.96;101980.34;5094239;28;20063;-60
2022/07/02 10:42:45;;;;;;;2.90;0.98;;;;;;;22.49;44.17;101978.47;5095075;28;20032;-59
2022/07/02 10:45:16;;;;;;;3.63;0.70;;;;;;;22.60;44.48;101970.81;5095074;28;20028;-61
2022/07/02 10:48:00;;;;;;;2.25;0.85;;;;;;;22.97;44.05;101978.03;5094517;28;20028;-60
2022/07/02 10:50:38;;;;;;;3.13;0.77;;;;;;;22.97;43.09;101979.84;5094884;28;20036;-59
2022/07/02 10:53:09;;;;;;;2.92;0.90;;;;;;;22.89;42.80;101974.84;5094886;28;20355;-59
2022/07/02 10:55:35;;;;;;;2.92;0.98;;;;;;;23.11;42.40;101967.56;5094790;28;20036;-60
2022/07/02 10:58:03;;;;;;;4.55;0.80;;;;;;;23.38;40.86;101961.84;5094698;28;20029;-60
2022/07/02 11:00:34;;;;;;;3.58;0.80;;;;;;;23.62;41.90;101965.97;5094516;28;20028;-60
2022/07/02 11:03:11;;;;;;;1.52;0.63;;;;;;;23.82;40.77;101956.94;5097873;28;20028;-60
2022/07/02 11:05:59;;;;;;;3.30;0.85;;;;;;;23.68;40.74;101956.78;5092813;28;20038;-59
2022/07/02 11:08:34;;;;;;;1.58;0.60;;;;;;;23.41;40.61;101957.19;5093834;28;20035;-59
2022/07/02 11:10:59;;;;;;;1.70;0.60;;;;;;;23.42;40.87;101956.22;5094767;28;20038;-60
2022/07/02 11:13:52;;;;;;;1.77;0.60;;;;;;;23.51;41.72;101958.50;5094554;28;20024;-59
2022/07/02 11:16:22;;;;;;;1.30;0.60;;;;;;;23.47;40.56;101958.69;5088863;28;20036;-62
2022/07/02 11:18:48;;;;;;;2.47;0.90;;;;;;;23.81;40.59;101960.56;5112576;28;20435;-60
2022/07/02 11:21:13;;;;;;;1.45;0.60;;;;;;;23.72;40.20;101945.88;5114535;28;20042;-62
2022/07/02 11:23:40;;;;;;;2.28;0.55;;;;;;;23.59;39.83;101950.09;5112873;28;20035;-60
2022/07/02 11:26:05;;;;;;;3.92;0.70;;;;;;;23.50;40.00;101947.84;5107154;28;20031;-60